Time;durP1;ratioP1;P1;durP2;ratioP2;P2;SDS_P1;SDS_P2;PMS_P1;PMS_P2;Temp;Humidity;BMP_temperature;BMP_pressure;BME280_temperature;BME280_humidity;BME280_pressure;Samples;Min_cycle;Max_cycle;Signal;HPM_P1;HPM_P2
2022/12/31 00:01:03;;;;;;;;;;;;;;;15.90;51.78;101849.00;5097987;28;1217;-51
2022/12/31 00:03:29;;;;;;;;;;;;;;;15.84;51.89;101855.47;5097075;28;1146;-48
2022/12/31 00:05:54;;;;;;;;;;;;;;;17.37;48.09;101856.53;5097078;28;1435;-49
2022/12/31 00:08:20;;;;;;;;;;;;;;;16.41;50.27;101860.13;5097587;28;1050;-51
2022/12/31 00:10:45;;;;;;;;;;;;;;;16.00;51.48;101868.41;5097145;28;1988;-49
2022/12/31 00:13:11;;;;;;;;;;;;;;;15.73;52.33;101868.91;5097328;28;1217;-49
2022/12/31 00:15:36;;;;;;;;;;;;;;;17.28;48.40;101875.38;5097246;28;1077;-50
2022/12/31 00:18:04;;;;;;;;;;;;;;;16.62;49.75;101866.84;5096762;28;1089;-51
2022/12/31 00:20:30;;;;;;;;;;;;;;;16.06;51.42;101880.31;5097387;28;1141;-52
2022/12/31 00:22:55;;;;;;;;;;;;;;;15.80;51.82;101878.97;5097704;28;1050;-51
2022/12/31 00:25:20;;;;;;;;;;;;;;;16.72;49.93;101885.44;5096208;28;1152;-49
2022/12/31 00:27:46;;;;;;;;;;;;;;;17.11;48.74;101882.81;5096833;28;1050;-50
2022/12/31 00:30:12;;;;;;;;;;;;;;;16.23;50.98;101891.38;5096985;28;1917;-50
2022/12/31 00:32:37;;;;;;;;;;;;;;;15.90;51.85;101892.88;5096517;28;984;-51
2022/12/31 00:35:03;;;;;;;;;;;;;;;15.74;52.17;101889.78;5096682;28;1077;-48
2022/12/31 00:37:28;;;;;;;;;;;;;;;17.36;48.22;101896.13;5095474;28;1094;-52
2022/12/31 00:39:54;;;;;;;;;;;;;;;16.52;50.18;101896.84;5096441;28;988;-49
2022/12/31 00:42:19;;;;;;;;;;;;;;;15.99;51.41;101888.69;5096632;28;1237;-51
2022/12/31 00:44:45;;;;;;;;;;;;;;;15.74;52.13;101889.78;5096963;28;1156;-51
2022/12/31 00:47:10;;;;;;;;;;;;;;;16.30;51.10;101894.81;5096016;28;1067;-51
2022/12/31 00:49:36;;;;;;;;;;;;;;;17.28;48.04;101899.31;5096701;28;1046;-50
2022/12/31 00:52:01;;;;;;;;;;;;;;;16.30;50.83;101903.03;5096225;28;1988;-47
2022/12/31 00:54:26;;;;;;;;;;;;;;;15.88;51.71;101906.03;5096254;28;1114;-52
2022/12/31 00:56:52;;;;;;;;;;;;;;;15.63;52.44;101901.59;5096500;28;1159;-50
2022/12/31 00:59:17;;;;;;;;;;;;;;;16.06;51.47;101903.13;5096364;28;1110;-49
2022/12/31 01:01:43;;;;;;;;;;;;;;;17.40;48.10;101910.19;5096174;28;1213;-49
2022/12/31 01:04:14;;;;;;;;;;;;;;;16.32;50.73;101900.88;5094310;28;943;-49
2022/12/31 01:06:39;;;;;;;;;;;;;;;15.87;51.72;101907.91;5096349;28;1091;-49
2022/12/31 01:09:05;;;;;;;;;;;;;;;15.68;52.34;101914.59;5096119;28;1166;-51
2022/12/31 01:11:31;;;;;;;;;;;;;;;17.23;48.56;101908.28;5096486;28;1969;-51
2022/12/31 01:14:10;;;;;;;;;;;;;;;16.43;50.18;101907.41;5097238;28;1067;-52
2022/12/31 01:16:44;;;;;;;;;;;;;;;15.91;51.51;101916.50;5092781;28;844;-50
2022/12/31 01:19:11;;;;;;;;;;;;;;;15.65;52.03;101915.88;5096047;28;1130;-49
2022/12/31 01:21:37;;;;;;;;;;;;;;;16.91;49.20;101913.53;5096482;28;1103;-51
2022/12/31 01:24:03;;;;;;;;;;;;;;;16.87;49.11;101915.91;5095874;28;1138;-50
2022/12/31 01:26:28;;;;;;;;;;;;;;;16.10;51.13;101914.41;5096397;28;1121;-51
2022/12/31 01:28:54;;;;;;;;;;;;;;;15.79;52.01;101904.69;5091193;28;893;-51
2022/12/31 01:31:19;;;;;;;;;;;;;;;15.56;52.34;101906.38;5095989;28;1909;-50
2022/12/31 01:33:45;;;;;;;;;;;;;;;17.04;48.84;101896.72;5095643;28;1113;-52
2022/12/31 01:36:14;;;;;;;;;;;;;;;16.81;49.44;101902.34;5096454;28;1053;-53
2022/12/31 01:38:39;;;;;;;;;;;;;;;16.06;51.44;101914.09;5095492;28;1189;-51
2022/12/31 01:41:05;;;;;;;;;;;;;;;15.72;51.88;101900.16;5095926;28;972;-52
2022/12/31 01:43:59;;;;;;;;;;;;;;;15.54;52.40;101903.03;5096089;28;1201;-47
2022/12/31 01:46:31;;;;;;;;;;;;;;;17.34;48.24;101901.03;5086764;28;1078;-51
2022/12/31 01:48:58;;;;;;;;;;;;;;;16.35;50.70;101900.38;5098317;28;1038;-51
2022/12/31 01:51:24;;;;;;;;;;;;;;;15.89;51.77;101891.22;5095093;28;2023;-50
2022/12/31 01:53:50;;;;;;;;;;;;;;;15.62;52.11;101905.41;5099193;28;1067;-51
2022/12/31 01:56:15;;;;;;;;;;;;;;;16.91;49.35;101908.03;5099391;28;1107;-50
2022/12/31 01:58:44;;;;;;;;;;;;;;;16.87;49.26;101912.31;5099359;28;1038;-52
2022/12/31 02:01:11;;;;;;;;;;;;;;;16.09;51.17;101904.53;5099606;28;1150;-49
2022/12/31 02:03:36;;;;;;;;;;;;;;;15.78;51.97;101905.75;5098686;28;1105;-52
2022/12/31 02:06:10;;;;;;;;;;;;;;;15.57;52.22;101900.66;5100262;28;1260;-49
2022/12/31 02:08:35;;;;;;;;;;;;;;;16.64;50.04;101905.88;5097901;28;1051;-52
2022/12/31 02:11:01;;;;;;;;;;;;;;;17.08;48.50;101903.41;5099320;28;1905;-52
2022/12/31 02:13:26;;;;;;;;;;;;;;;16.20;50.79;101900.06;5099705;28;1171;-49
2022/12/31 02:16:10;;;;;;;;;;;;;;;15.81;51.77;101906.16;5098795;28;1030;-50
2022/12/31 02:18:51;;;;;;;;;;;;;;;16.91;49.47;101908.03;5098825;28;1030;-52
2022/12/31 02:21:28;;;;;;;;;;;;;;;16.79;49.44;101912.72;5099369;28;1356;-49
2022/12/31 02:24:23;;;;;;;;;;;;;;;16.13;51.21;101907.63;5099220;28;1099;-50
2022/12/31 02:26:53;;;;;;;;;;;;;;;15.71;51.80;101912.22;5059483;28;1144;-48
2022/12/31 02:29:21;;;;;;;;;;;;;;;15.70;51.97;101912.44;5094979;28;1209;-48
2022/12/31 02:31:55;;;;;;;;;;;;;;;17.30;48.17;101910.88;5098720;28;1898;-49
2022/12/31 02:34:26;;;;;;;;;;;;;;;16.37;50.16;101906.47;5099342;28;1114;-51
2022/12/31 02:36:51;;;;;;;;;;;;;;;15.85;51.48;101912.81;5099356;28;1041;-51
2022/12/31 02:39:17;;;;;;;;;;;;;;;15.62;52.23;101915.56;5096822;28;1400;-52
2022/12/31 02:41:52;;;;;;;;;;;;;;;16.72;49.71;101916.47;5098220;28;1079;-52
2022/12/31 02:44:28;;;;;;;;;;;;;;;16.69;49.63;101913.38;5098465;28;1019;-49
2022/12/31 02:47:14;;;;;;;;;;;;;;;15.94;51.54;101916.03;5098983;28;1050;-52
2022/12/31 02:50:02;;;;;;;;;;;;;;;15.63;52.25;101909.81;5066584;28;1199;-53
2022/12/31 02:52:32;;;;;;;;;;;;;;;17.38;47.65;101910.44;5081959;28;1327;-49
2022/12/31 02:55:01;;;;;;;;;;;;;;;16.51;49.79;101915.25;5097607;28;1252;-50
2022/12/31 02:57:36;;;;;;;;;;;;;;;15.93;51.60;101919.00;5097253;28;1086;-48
2022/12/31 03:02:46;;;;;;;;;;;;;;;16.04;51.27;101910.75;5098443;28;1077;-52
2022/12/31 03:05:12;;;;;;;;;;;;;;;17.50;47.65;101926.03;5087669;28;1121;-50
2022/12/31 03:07:38;;;;;;;;;;;;;;;16.53;49.81;101912.25;5097280;28;1111;-49
2022/12/31 03:10:04;;;;;;;;;;;;;;;15.98;51.33;101922.69;5097054;28;1990;-48
2022/12/31 03:12:45;;;;;;;;;;;;;;;15.77;51.74;101931.50;5086555;28;1241;-51
2022/12/31 03:15:21;;;;;;;;;;;;;;;17.42;47.72;101919.88;5094965;28;1179;-52
2022/12/31 03:18:07;;;;;;;;;;;;;;;16.33;50.39;101924.50;5097865;28;840;-48
2022/12/31 03:23:24;;;;;;;;;;;;;;;16.11;51.19;101929.00;5098306;28;1066;-50
2022/12/31 03:25:50;;;;;;;;;;;;;;;17.10;48.33;101931.44;5097903;28;1066;-51
2022/12/31 03:28:16;;;;;;;;;;;;;;;16.15;51.01;101922.78;5089367;28;1046;-52
2022/12/31 03:30:44;;;;;;;;;;;;;;;15.80;51.57;101931.91;5093234;28;1981;-51
2022/12/31 03:33:10;;;;;;;;;;;;;;;15.59;51.89;101930.56;5098127;28;1054;-52
2022/12/31 03:35:35;;;;;;;;;;;;;;;16.71;49.56;101931.28;5097609;28;1030;-49
2022/12/31 03:38:01;;;;;;;;;;;;;;;16.88;48.87;101933.22;5098038;28;1217;-52
2022/12/31 03:40:27;;;;;;;;;;;;;;;16.03;51.04;101933.78;5097009;28;1097;-49
2022/12/31 03:42:52;;;;;;;;;;;;;;;15.72;51.73;101927.59;5097524;28;1150;-52
2022/12/31 03:45:18;;;;;;;;;;;;;;;15.49;52.43;101941.31;5097501;28;1079;-49
2022/12/31 03:47:43;;;;;;;;;;;;;;;16.92;49.04;101929.75;5097468;28;1058;-52
2022/12/31 03:50:09;;;;;;;;;;;;;;;16.56;49.63;101929.09;5097955;28;1983;-51
2022/12/31 03:52:34;;;;;;;;;;;;;;;15.92;51.46;101934.59;5097182;28;1189;-50
2022/12/31 03:55:01;;;;;;;;;;;;;;;15.60;52.18;101937.72;5097466;28;1074;-52
2022/12/31 03:57:26;;;;;;;;;;;;;;;16.28;50.69;101938.13;5097531;28;1133;-51
2022/12/31 03:59:52;;;;;;;;;;;;;;;17.11;48.11;101940.53;5096938;28;1070;-49
2022/12/31 04:02:17;;;;;;;;;;;;;;;16.10;50.82;101941.03;5097234;28;1023;-50
2022/12/31 04:04:42;;;;;;;;;;;;;;;15.71;51.74;101944.25;5092397;28;1061;-51
2022/12/31 04:07:08;;;;;;;;;;;;;;;16.43;50.12;101941.16;5097293;28;1062;-51
2022/12/31 04:09:33;;;;;;;;;;;;;;;17.01;48.66;101940.34;5097329;28;1078;-51
2022/12/31 04:11:59;;;;;;;;;;;;;;;16.07;51.05;101954.19;5097090;28;1984;-48
2022/12/31 04:14:24;;;;;;;;;;;;;;;15.74;51.79;101960.25;5095418;28;1526;-53
2022/12/31 04:16:49;;;;;;;;;;;;;;;16.38;50.23;101954.81;5097200;28;1066;-52
2022/12/31 04:19:15;;;;;;;;;;;;;;;16.99;48.35;101959.84;5096708;28;1037;-51
2022/12/31 04:21:40;;;;;;;;;;;;;;;16.07;50.68;101953.31;5096691;28;1083;-54
2022/12/31 04:24:06;;;;;;;;;;;;;;;15.72;51.70;101955.03;5097070;28;1122;-53
2022/12/31 04:26:31;;;;;;;;;;;;;;;15.85;51.51;101962.19;5097238;28;1026;-55
2022/12/31 04:28:57;;;;;;;;;;;;;;;17.35;47.72;101960.44;5096781;28;1122;-58
2022/12/31 04:31:22;;;;;;;;;;;;;;;16.33;50.04;101960.19;5097141;28;1975;-59
2022/12/31 04:33:48;;;;;;;;;;;;;;;15.85;51.30;101966.81;5096797;28;1198;-57
2022/12/31 04:36:13;;;;;;;;;;;;;;;15.63;51.64;101959.19;5096763;28;1090;-56
2022/12/31 04:38:38;;;;;;;;;;;;;;;16.83;49.02;101957.84;5096757;28;1122;-57
2022/12/31 04:41:16;;;;;;;;;;;;;;;17.08;48.22;101963.84;5096409;28;1022;-57
2022/12/31 04:43:45;;;;;;;;;;;;;;;16.07;50.65;101967.91;5096385;28;1189;-55
2022/12/31 04:46:11;;;;;;;;;;;;;;;15.79;51.36;101970.50;5096794;28;1094;-57
2022/12/31 04:48:37;;;;;;;;;;;;;;;16.72;49.43;101968.66;5096649;28;1006;-55
2022/12/31 04:51:02;;;;;;;;;;;;;;;17.07;48.22;101970.41;5096377;28;1982;-55
2022/12/31 04:53:28;;;;;;;;;;;;;;;16.20;50.61;101974.16;5089697;28;1145;-56
2022/12/31 04:55:53;;;;;;;;;;;;;;;15.81;51.42;101974.72;5096907;28;1018;-58
2022/12/31 04:58:19;;;;;;;;;;;;;;;15.55;52.14;101974.06;5096326;28;1118;-53
2022/12/31 05:00:45;;;;;;;;;;;;;;;17.04;48.51;101973.66;5096604;28;1266;-54
2022/12/31 05:03:11;;;;;;;;;;;;;;;16.53;49.34;101975.41;5096189;28;1082;-46
2022/12/31 05:05:41;;;;;;;;;;;;;;;15.89;51.05;101970.75;5095901;28;876;-54
2022/12/31 05:08:07;;;;;;;;;;;;;;;15.63;52.00;101972.88;5096687;28;1153;-53
2022/12/31 05:10:32;;;;;;;;;;;;;;;17.22;47.91;101972.59;5096034;28;1910;-57
2022/12/31 05:12:58;;;;;;;;;;;;;;;16.62;49.00;101982.19;5095773;28;1129;-57
2022/12/31 05:15:23;;;;;;;;;;;;;;;16.01;50.65;101984.47;5095871;28;1174;-57
2022/12/31 05:17:49;;;;;;;;;;;;;;;15.68;51.61;101989.47;5094145;28;2642;-50
2022/12/31 05:20:14;;;;;;;;;;;;;;;15.49;51.78;101976.94;5095841;28;2323;-49
2022/12/31 05:22:39;;;;;;;;;;;;;;;15.61;51.80;101983.25;5096089;28;1848;-49
2022/12/31 05:25:05;;;;;;;;;;;;;;;17.18;48.15;101987.06;5099413;28;2086;-53
2022/12/31 05:27:31;;;;;;;;;;;;;;;16.21;50.10;101998.63;5096764;28;2128;-54
2022/12/31 05:29:56;;;;;;;;;;;;;;;15.78;51.30;101993.50;5099719;28;2057;-52
2022/12/31 05:32:21;;;;;;;;;;;;;;;15.50;51.83;102001.38;5100094;28;1969;-57
2022/12/31 05:34:47;;;;;;;;;;;;;;;16.01;51.15;102006.44;5099482;28;1030;-52
2022/12/31 05:37:12;;;;;;;;;;;;;;;17.23;47.84;102003.66;5099682;28;1089;-50
2022/12/31 05:39:38;;;;;;;;;;;;;;;16.18;50.01;102001.03;5100019;28;1118;-55
2022/12/31 05:42:04;;;;;;;;;;;;;;;15.76;51.13;102001.16;5099238;28;1102;-48
2022/12/31 05:44:29;;;;;;;;;;;;;;;16.39;49.93;102011.38;5099929;28;1043;-48
2022/12/31 05:46:55;;;;;;;;;;;;;;;17.34;47.35;102010.19;5099949;28;1145;-47
2022/12/31 05:49:20;;;;;;;;;;;;;;;16.23;50.23;102012.97;5099788;28;1014;-51
2022/12/31 05:51:46;;;;;;;;;;;;;;;15.86;50.95;102013.22;5099319;28;1910;-51
2022/12/31 05:54:11;;;;;;;;;;;;;;;15.60;51.50;102025.47;5096772;28;906;-47
2022/12/31 05:56:36;;;;;;;;;;;;;;;17.08;48.11;102023.47;5099538;28;1134;-52
2022/12/31 05:59:02;;;;;;;;;;;;;;;16.68;48.71;102019.66;5099736;28;1169;-50
2022/12/31 06:01:27;;;;;;;;;;;;;;;16.02;50.54;102022.66;5098665;28;2193;-51
2022/12/31 06:03:53;;;;;;;;;;;;;;;15.68;51.38;102027.88;5089254;28;1079;-49
2022/12/31 06:06:18;;;;;;;;;;;;;;;15.90;51.18;102038.28;5089787;28;1137;-53
2022/12/31 06:08:47;;;;;;;;;;;;;;;17.31;47.48;102038.19;5099091;28;1118;-51
2022/12/31 06:11:13;;;;;;;;;;;;;;;16.26;50.13;102039.09;5099094;28;1910;-52
2022/12/31 06:13:38;;;;;;;;;;;;;;;15.84;51.15;102041.97;5099190;28;1082;-49
2022/12/31 06:16:05;;;;;;;;;;;;;;;15.57;51.76;102054.19;5099312;28;1039;-57
2022/12/31 06:18:30;;;;;;;;;;;;;;;16.32;49.94;102043.59;5094894;28;912;-53
2022/12/31 06:20:56;;;;;;;;;;;;;;;17.16;47.59;102066.22;5098675;28;1011;-55
2022/12/31 06:23:22;;;;;;;;;;;;;;;16.15;50.29;102054.50;5098871;28;1090;-52
2022/12/31 06:25:47;;;;;;;;;;;;;;;17.14;47.58;102062.88;5098890;28;1038;-52
2022/12/31 06:28:13;;;;;;;;;;;;;;;16.21;49.47;102069.16;5099233;28;1131;-52
2022/12/31 06:30:38;;;;;;;;;;;;;;;18.00;45.68;102064.66;5098623;28;1957;-52
2022/12/31 06:33:03;;;;;;;;;;;;;;;17.02;47.66;102073.91;5093414;28;2475;-50
2022/12/31 06:35:29;;;;;;;;;;;;;;;16.38;48.25;102072.84;5098566;28;1163;-53
2022/12/31 06:37:54;;;;;;;;;;;;;;;17.50;47.18;102077.28;5098454;28;1142;-50
2022/12/31 06:40:20;;;;;;;;;;;;;;;16.55;48.73;102085.81;5098710;28;1186;-54
2022/12/31 06:42:45;;;;;;;;;;;;;;;18.05;45.92;102090.31;5098078;28;881;-47
2022/12/31 06:45:12;;;;;;;;;;;;;;;18.15;45.30;102088.81;5098279;28;1241;-52
2022/12/31 06:47:37;;;;;;;;;;;;;;;16.89;47.92;102095.09;5098387;28;1086;-54
2022/12/31 06:50:03;;;;;;;;;;;;;;;18.20;45.53;102091.63;5097967;28;1054;-50
2022/12/31 06:52:28;;;;;;;;;;;;;;;17.29;47.35;102087.88;5098599;28;1909;-52
2022/12/31 06:54:55;;;;;;;;;;;;;;;18.03;46.00;102100.72;5085176;28;1086;-50
2022/12/31 06:57:22;;;;;;;;;;;;;;;18.74;44.14;102097.34;5098361;28;1137;-51
2022/12/31 06:59:48;;;;;;;;;;;;;;;17.32;46.95;102095.66;5097772;28;1002;-53
2022/12/31 07:02:13;;;;;;;;;;;;;;;16.99;48.12;102090.91;5091054;28;2275;-53
2022/12/31 07:04:38;;;;;;;;;;;;;;;17.22;47.31;102107.31;5092416;28;971;-53
2022/12/31 07:07:04;;;;;;;;;;;;;;;17.20;47.81;102103.94;5091215;28;878;-51
2022/12/31 07:09:35;;;;;;;;;;;;;;;18.95;44.07;102098.44;5096773;28;1070;-50
2022/12/31 07:12:21;;;;;;;;;;;;;;;17.36;47.08;102109.75;5096890;28;1981;-49
2022/12/31 07:15:05;;;;;;;;;;;;;;;19.10;43.76;102110.78;5056398;28;1301;-49
2022/12/31 07:17:34;;;;;;;;;;;;;;;17.97;46.06;102112.75;5097023;28;1050;-53
2022/12/31 07:20:09;;;;;;;;;;;;;;;17.27;46.94;102115.63;5097295;28;1034;-53
2022/12/31 07:22:35;;;;;;;;;;;;;;;18.55;45.34;102118.88;5097377;28;1078;-54
2022/12/31 07:25:01;;;;;;;;;;;;;;;17.41;46.95;102127.16;5097470;28;1129;-52
2022/12/31 07:27:45;;;;;;;;;;;;;;;18.40;45.64;102122.22;5097290;28;1055;-54
2022/12/31 07:30:12;;;;;;;;;;;;;;;18.28;45.66;102121.50;5091045;28;1973;-50
2022/12/31 07:32:46;;;;;;;;;;;;;;;17.36;47.03;102124.34;5089684;28;2338;-52
2022/12/31 07:35:16;;;;;;;;;;;;;;;17.54;47.49;102130.69;5097204;28;1090;-53
2022/12/31 07:37:54;;;;;;;;;;;;;;;17.37;47.36;102136.97;5097397;28;1130;-55
2022/12/31 07:40:43;;;;;;;;;;;;;;;18.88;44.63;102143.84;5095354;28;1079;-56
2022/12/31 07:43:09;;;;;;;;;;;;;;;18.58;45.10;102139.53;5091078;28;1140;-52
2022/12/31 07:45:41;;;;;;;;;;;;;;;17.66;46.49;102149.91;5096376;28;1055;-55
2022/12/31 07:48:13;;;;;;;;;;;;;;;17.47;47.55;102149.28;5097198;28;1111;-53
2022/12/31 07:50:38;;;;;;;;;;;;;;;17.39;47.43;102161.47;5095759;28;1913;-53
2022/12/31 07:53:04;;;;;;;;;;;;;;;17.08;47.35;102172.72;5097257;28;1118;-53
2022/12/31 07:55:29;;;;;;;;;;;;;;;17.65;47.25;102156.47;5096554;28;987;-56
2022/12/31 07:58:00;;;;;;;;;;;;;;;17.70;47.06;102154.66;5096637;28;1011;-53
2022/12/31 08:00:25;;;;;;;;;;;;;;;17.34;48.05;102162.22;5095792;28;1052;-53
2022/12/31 08:03:00;;;;;;;;;;;;;;;19.18;43.89;102165.47;5084644;28;2427;-55
2022/12/31 08:05:39;;;;;;;;;;;;;;;17.66;47.01;102169.97;5084071;28;1034;-52
2022/12/31 08:08:27;;;;;;;;;;;;;;;17.76;47.30;102172.91;5092335;28;955;-52
2022/12/31 08:11:02;;;;;;;;;;;;;;;17.63;47.05;102170.47;5065464;28;1910;-53
2022/12/31 08:13:27;;;;;;;;;;;;;;;17.20;47.25;102172.66;5083657;28;1023;-51
2022/12/31 08:15:53;;;;;;;;;;;;;;;18.18;46.07;102170.91;5096469;28;1165;-53
2022/12/31 08:18:18;;;;;;;;;;;;;;;17.19;47.35;102179.25;5093025;28;1078;-52
2022/12/31 08:20:53;;;;;;;;;;;;;;;18.36;45.99;102180.84;5090076;28;1054;-52
2022/12/31 08:23:20;;;;;;;;;;;;;;;17.61;46.93;102170.72;5096364;28;1003;-52
2022/12/31 08:25:49;;;;;;;;;;;;;;;17.70;47.39;102176.66;5095407;28;1171;-53
2022/12/31 08:28:14;;;;;;;;;;;;;;;18.75;44.87;102169.84;5096663;28;1086;-55
2022/12/31 08:30:52;;;;;;;;;;;;;;;17.50;47.10;102171.63;5091714;28;1973;-54
2022/12/31 08:33:18;;;;;;;;;;;;;;;17.14;46.93;102170.06;5090182;28;2591;-53
2022/12/31 08:35:57;;;;;;;;;;;;;;;18.38;45.89;102164.88;5096574;28;1114;-54
2022/12/31 08:38:42;;;;;;;;;;;;;;;17.22;47.62;102164.19;5095285;28;1059;-52
2022/12/31 08:41:26;;;;;;;;;;;;;;;17.81;47.25;102165.84;5082010;28;1399;-53
2022/12/31 08:43:58;;;;;;;;;;;;;;;17.54;47.16;102169.19;5094686;28;1051;-54
2022/12/31 08:46:28;;;;;;;;;;;;;;;18.41;45.92;102161.59;5095931;28;1054;-51
2022/12/31 08:48:54;;;;;;;;;;;;;;;18.83;44.63;102152.00;5094598;28;1209;-53
2022/12/31 08:51:20;;;;;;;;;;;;;;;17.61;47.03;102148.72;5095605;28;1969;-53
2022/12/31 08:53:47;;;;;;;;;;;;;;;17.15;47.09;102145.06;5095442;28;1082;-53
2022/12/31 08:56:24;;;;;;;;;;;;;;;16.94;46.62;102141.06;5090266;28;852;-53
2022/12/31 08:58:53;;;;;;;;;;;;;;;17.58;46.88;102137.38;5093755;28;1091;-53
2022/12/31 09:01:20;;;;;;;;;;;;;;;17.18;47.70;102143.75;5096075;28;1166;-52
2022/12/31 09:04:04;;;;;;;;;;;;;;;18.20;46.33;102136.53;5081799;28;2622;-50
2022/12/31 09:06:34;;;;;;;;;;;;;;;18.50;45.59;102137.25;5095659;28;1055;-54
2022/12/31 09:09:18;;;;;;;;;;;;;;;17.42;47.23;102136.28;5096165;28;1061;-53
2022/12/31 09:11:51;;;;;;;;;;;;;;;17.12;47.13;102126.31;5095475;28;1901;-51
2022/12/31 09:14:32;;;;;;;;;;;;;;;18.22;46.53;102128.03;5094669;28;1043;-55
2022/12/31 09:17:16;;;;;;;;;;;;;;;17.09;47.99;102119.41;5095535;28;1120;-52
2022/12/31 09:19:43;;;;;;;;;;;;;;;18.20;46.43;102121.91;5088719;28;1077;-51
2022/12/31 09:22:09;;;;;;;;;;;;;;;17.63;47.40;102126.47;5095502;28;1169;-52
2022/12/31 09:24:35;;;;;;;;;;;;;;;17.19;48.08;102120.69;5095523;28;1119;-49
2022/12/31 09:27:05;;;;;;;;;;;;;;;18.66;45.34;102113.50;5095711;28;1177;-54
2022/12/31 09:29:33;;;;;;;;;;;;;;;17.44;47.76;102117.59;5094247;28;1110;-50
2022/12/31 09:32:18;;;;;;;;;;;;;;;17.13;47.46;102116.19;5089649;28;2376;-51
2022/12/31 09:34:43;;;;;;;;;;;;;;;18.42;46.11;102108.22;5083584;28;1003;-55
2022/12/31 09:37:16;;;;;;;;;;;;;;;17.37;47.80;102104.00;5095463;28;1094;-53
2022/12/31 09:39:45;;;;;;;;;;;;;;;16.96;47.70;102118.84;5095494;28;1248;-51
2022/12/31 09:42:21;;;;;;;;;;;;;;;18.05;46.70;102103.25;5095118;28;1136;-53
2022/12/31 09:45:01;;;;;;;;;;;;;;;17.15;48.21;102097.53;5095317;28;882;-55
2022/12/31 09:47:33;;;;;;;;;;;;;;;17.93;47.28;102100.59;5095405;28;1047;-53
2022/12/31 09:50:03;;;;;;;;;;;;;;;17.42;47.72;102095.03;5095447;28;1063;-53
2022/12/31 09:52:34;;;;;;;;;;;;;;;16.98;47.81;102092.78;5095428;28;1914;-54
2022/12/31 09:55:18;;;;;;;;;;;;;;;17.70;47.37;102088.63;5095227;28;983;-53
2022/12/31 09:58:02;;;;;;;;;;;;;;;17.01;47.91;102084.09;5095176;28;1026;-54
2022/12/31 10:00:42;;;;;;;;;;;;;;;18.42;46.05;102077.91;5095499;28;1030;-53
2022/12/31 10:03:13;;;;;;;;;;;;;;;17.24;47.86;102079.56;5082792;28;2265;-53
2022/12/31 10:05:42;;;;;;;;;;;;;;;16.87;47.62;102067.03;5095419;28;1025;-52
2022/12/31 10:08:23;;;;;;;;;;;;;;;18.00;46.84;102068.22;5085076;28;1108;-53
2022/12/31 10:10:51;;;;;;;;;;;;;;;17.01;47.97;102067.59;5097980;28;1901;-53
2022/12/31 10:13:20;;;;;;;;;;;;;;;18.97;44.73;102062.34;5097426;28;1098;-49
2022/12/31 10:16:05;;;;;;;;;;;;;;;17.72;47.09;102067.19;5099587;28;1095;-54
2022/12/31 10:18:50;;;;;;;;;;;;;;;17.18;48.15;102055.78;5099111;28;1169;-53
2022/12/31 10:21:22;;;;;;;;;;;;;;;17.68;47.23;102056.94;5095648;28;1111;-53
2022/12/31 10:23:57;;;;;;;;;;;;;;;17.48;48.29;102060.19;5098641;28;1237;-52
2022/12/31 10:26:25;;;;;;;;;;;;;;;19.01;44.63;102049.72;5099085;28;1177;-50
2022/12/31 10:29:07;;;;;;;;;;;;;;;17.59;47.33;102051.84;5098531;28;1018;-54
2022/12/31 10:31:51;;;;;;;;;;;;;;;17.23;47.33;102053.97;5098878;28;2273;-51
2022/12/31 10:34:17;;;;;;;;;;;;;;;16.92;47.09;102049.81;5079705;28;1467;-50
2022/12/31 10:37:00;;;;;;;;;;;;;;;17.93;46.88;102040.88;5090038;28;1047;-52
2022/12/31 10:39:48;;;;;;;;;;;;;;;17.41;48.05;102039.19;5086323;28;1136;-51
2022/12/31 10:42:19;;;;;;;;;;;;;;;19.41;43.88;102045.72;5097383;28;1167;-53
2022/12/31 10:45:00;;;;;;;;;;;;;;;17.75;47.35;102039.22;5094876;28;940;-52
2022/12/31 10:47:26;;;;;;;;;;;;;;;17.31;47.24;102032.69;5098155;28;1075;-54
2022/12/31 10:49:52;;;;;;;;;;;;;;;17.18;46.90;102039.31;5098593;28;1095;-52
2022/12/31 10:52:43;;;;;;;;;;;;;;;18.61;45.68;102028.88;5098023;28;1964;-55
2022/12/31 10:55:29;;;;;;;;;;;;;;;17.38;47.58;102022.34;5081604;28;1194;-56
2022/12/31 10:58:04;;;;;;;;;;;;;;;17.07;47.48;102033.63;5098068;28;1078;-55
2022/12/31 11:00:29;;;;;;;;;;;;;;;17.99;46.95;102018.94;5097685;28;1136;-53
2022/12/31 11:02:55;;;;;;;;;;;;;;;17.24;47.86;102013.59;5086113;28;1840;-56
2022/12/31 11:05:39;;;;;;;;;;;;;;;17.77;47.80;102012.25;5098192;28;1138;-53
2022/12/31 11:08:08;;;;;;;;;;;;;;;17.33;47.92;102017.59;5097141;28;1077;-54
2022/12/31 11:10:45;;;;;;;;;;;;;;;17.58;47.81;102010.84;5097646;28;1972;-53
2022/12/31 11:13:10;;;;;;;;;;;;;;;18.15;46.43;101998.81;5096546;28;1099;-51
2022/12/31 11:15:54;;;;;;;;;;;;;;;17.40;47.67;102004.53;5098371;28;1130;-57
2022/12/31 11:18:49;;;;;;;;;;;;;;;17.08;47.57;101991.34;5098016;28;1227;-54
2022/12/31 11:21:20;;;;;;;;;;;;;;;18.00;47.06;102002.16;5076788;28;1376;-55
2022/12/31 11:23:49;;;;;;;;;;;;;;;17.29;47.92;102002.66;5097842;28;1126;-54
2022/12/31 11:26:23;;;;;;;;;;;;;;;18.51;46.28;102001.19;5097735;28;1109;-57
2022/12/31 11:29:09;;;;;;;;;;;;;;;17.48;47.85;101999.69;5097842;28;1158;-58
2022/12/31 11:31:54;;;;;;;;;;;;;;;16.98;47.93;102004.88;5096581;28;1983;-54
2022/12/31 11:34:38;;;;;;;;;;;;;;;17.15;47.57;102001.31;5097648;28;1050;-55
2022/12/31 11:37:03;;;;;;;;;;;;;;;17.57;47.62;102000.94;5096965;28;1446;-56
2022/12/31 11:39:29;;;;;;;;;;;;;;;17.06;48.01;101996.22;5096507;28;1039;-49
2022/12/31 11:41:56;;;;;;;;;;;;;;;18.43;46.46;102000.53;5097191;28;1066;-52
2022/12/31 11:44:37;;;;;;;;;;;;;;;17.27;48.13;101996.59;5088026;28;1063;-53
2022/12/31 11:47:11;;;;;;;;;;;;;;;18.79;45.70;101998.22;5080556;28;1055;-54
2022/12/31 11:49:37;;;;;;;;;;;;;;;18.07;46.76;102000.06;5097236;28;1062;-54
2022/12/31 11:52:21;;;;;;;;;;;;;;;17.43;47.46;102000.44;5097534;28;1913;-53
2022/12/31 11:54:46;;;;;;;;;;;;;;;17.98;47.28;101996.09;5096567;28;1094;-52
2022/12/31 11:57:12;;;;;;;;;;;;;;;17.55;47.63;102008.63;5082959;28;896;-52
2022/12/31 11:59:37;;;;;;;;;;;;;;;17.19;47.68;102002.50;5090678;28;1051;-52
2022/12/31 12:02:09;;;;;;;;;;;;;;;18.40;46.30;102001.06;5091009;28;1791;-53
2022/12/31 12:04:34;;;;;;;;;;;;;;;17.27;48.23;102004.84;5089234;28;1027;-54
2022/12/31 12:07:00;;;;;;;;;;;;;;;17.40;48.31;101993.53;5096048;28;1162;-54
2022/12/31 12:09:27;;;;;;;;;;;;;;;17.88;47.45;101995.91;5096578;28;884;-53
2022/12/31 12:12:02;;;;;;;;;;;;;;;17.18;48.09;102000.81;5095374;28;1906;-56
2022/12/31 12:14:31;;;;;;;;;;;;;;;19.04;44.99;101996.00;5096413;28;1062;-54
2022/12/31 12:16:56;;;;;;;;;;;;;;;17.57;47.67;101998.19;5096875;28;1003;-57
2022/12/31 12:19:23;;;;;;;;;;;;;;;17.37;48.36;101996.75;5096684;28;1142;-55
2022/12/31 12:21:48;;;;;;;;;;;;;;;17.97;47.21;101991.66;5096457;28;995;-53
2022/12/31 12:24:21;;;;;;;;;;;;;;;17.28;47.78;101995.53;5095131;28;1047;-53
2022/12/31 12:26:47;;;;;;;;;;;;;;;18.13;47.16;101996.31;5096621;28;1101;-56
2022/12/31 12:29:14;;;;;;;;;;;;;;;17.56;47.76;101985.53;5096365;28;1099;-56
2022/12/31 12:31:39;;;;;;;;;;;;;;;17.12;47.81;101997.16;5093567;28;1890;-58
2022/12/31 12:34:05;;;;;;;;;;;;;;;18.15;46.81;101989.72;5093480;28;1010;-56
2022/12/31 12:36:31;;;;;;;;;;;;;;;17.29;47.80;102002.66;5096311;28;1047;-59
2022/12/31 12:39:00;;;;;;;;;;;;;;;17.72;47.78;101998.41;5096621;28;1086;-54
2022/12/31 12:41:26;;;;;;;;;;;;;;;17.74;47.77;101984.41;5096070;28;1136;-56
2022/12/31 12:44:05;;;;;;;;;;;;;;;17.20;47.83;101987.69;5096273;28;1074;-55
2022/12/31 12:46:33;;;;;;;;;;;;;;;18.19;47.25;101999.97;5088039;28;1046;-50
2022/12/31 12:48:59;;;;;;;;;;;;;;;17.48;47.71;101989.53;5095981;28;1157;-55
2022/12/31 12:51:30;;;;;;;;;;;;;;;18.45;46.63;101990.13;5095101;28;1906;-54
2022/12/31 12:54:02;;;;;;;;;;;;;;;18.71;45.77;101998.66;5096216;28;1043;-53
2022/12/31 12:56:46;;;;;;;;;;;;;;;17.56;47.73;101997.34;5091584;28;1054;-56
2022/12/31 12:59:20;;;;;;;;;;;;;;;17.20;47.64;101996.75;5094378;28;1003;-53
2022/12/31 13:01:46;;;;;;;;;;;;;;;18.33;47.01;102005.06;5092425;28;2381;-55
2022/12/31 13:04:30;;;;;;;;;;;;;;;17.56;47.75;101996.53;5086566;28;1105;-52
2022/12/31 13:07:14;;;;;;;;;;;;;;;18.05;47.61;101994.00;5092880;28;1091;-54